sensor_id;sensor_type;location;lat;lon;timestamp;pressure;altitude;pressure_sealevel;temperature
82636;BMP280;72317;37.280;-121.948;2024-03-02T00:01:05;97271.81;;;14.32
82636;BMP280;72317;37.280;-121.948;2024-03-02T00:06:06;97225.31;;;14.31
82636;BMP280;72317;37.280;-121.948;2024-03-02T00:11:07;97225.31;;;14.31
82636;BMP280;72317;37.280;-121.948;2024-03-02T00:16:08;97312.44;;;13.99
82636;BMP280;72317;37.280;-121.948;2024-03-02T00:21:09;97788.69;;;13.66
82636;BMP280;72317;37.280;-121.948;2024-03-02T00:26:11;97794.78;;;13.84
82636;BMP280;72317;37.280;-121.948;2024-03-02T00:31:13;97521.53;;;14.22
82636;BMP280;72317;37.280;-121.948;2024-03-02T00:36:16;97480.06;;;13.90
82636;BMP280;72317;37.280;-121.948;2024-03-02T00:41:33;98112.44;;;13.32
82636;BMP280;72317;37.280;-121.948;2024-03-02T00:46:41;98670.22;;;13.18
82636;BMP280;72317;37.280;-121.948;2024-03-02T00:51:46;98735.31;;;13.25
82636;BMP280;72317;37.280;-121.948;2024-03-02T00:56:48;98904.75;;;13.09
82636;BMP280;72317;37.280;-121.948;2024-03-02T01:01:49;98624.19;;;13.28
82636;BMP280;72317;37.280;-121.948;2024-03-02T01:06:50;98790.41;;;13.05
82636;BMP280;72317;37.280;-121.948;2024-03-02T01:11:51;98829.69;;;12.66
82636;BMP280;72317;37.280;-121.948;2024-03-02T01:16:52;99125.00;;;12.37
82636;BMP280;72317;37.280;-121.948;2024-03-02T01:21:52;99434.72;;;12.30
82636;BMP280;72317;37.280;-121.948;2024-03-02T01:26:53;99667.41;;;12.55
82636;BMP280;72317;37.280;-121.948;2024-03-02T01:31:54;99788.50;;;12.30
82636;BMP280;72317;37.280;-121.948;2024-03-02T01:36:55;99748.34;;;12.60
82636;BMP280;72317;37.280;-121.948;2024-03-02T01:42:16;99769.53;;;12.48
82636;BMP280;72317;37.280;-121.948;2024-03-02T01:47:16;99763.75;;;12.56
82636;BMP280;72317;37.280;-121.948;2024-03-02T01:52:17;99746.09;;;12.52
82636;BMP280;72317;37.280;-121.948;2024-03-02T01:57:19;99531.00;;;12.66
82636;BMP280;72317;37.280;-121.948;2024-03-02T02:02:19;99323.69;;;12.67
82636;BMP280;72317;37.280;-121.948;2024-03-02T02:07:20;99344.56;;;12.56
82636;BMP280;72317;37.280;-121.948;2024-03-02T02:12:21;99168.13;;;12.73
82636;BMP280;72317;37.280;-121.948;2024-03-02T02:17:22;99124.97;;;12.60
82636;BMP280;72317;37.280;-121.948;2024-03-02T02:22:23;98938.19;;;12.52
82636;BMP280;72317;37.280;-121.948;2024-03-02T02:27:23;98796.81;;;12.62
82636;BMP280;72317;37.280;-121.948;2024-03-02T02:32:24;98913.72;;;12.50
82636;BMP280;72317;37.280;-121.948;2024-03-02T02:37:25;99041.19;;;12.46
82636;BMP280;72317;37.280;-121.948;2024-03-02T02:42:26;99197.50;;;12.37
82636;BMP280;72317;37.280;-121.948;2024-03-02T02:47:26;99403.22;;;12.31
82636;BMP280;72317;37.280;-121.948;2024-03-02T02:52:31;99609.09;;;12.07
82636;BMP280;72317;37.280;-121.948;2024-03-02T02:57:33;99477.47;;;12.14
82636;BMP280;72317;37.280;-121.948;2024-03-02T03:02:34;99232.16;;;12.28
82636;BMP280;72317;37.280;-121.948;2024-03-02T03:07:35;98691.53;;;12.34
82636;BMP280;72317;37.280;-121.948;2024-03-02T03:12:36;98715.09;;;12.27
82636;BMP280;72317;37.280;-121.948;2024-03-02T03:17:37;98438.19;;;12.41
82636;BMP280;72317;37.280;-121.948;2024-03-02T03:22:38;98376.97;;;12.36
82636;BMP280;72317;37.280;-121.948;2024-03-02T03:27:39;98400.91;;;12.43
82636;BMP280;72317;37.280;-121.948;2024-03-02T03:32:39;98413.41;;;12.50
82636;BMP280;72317;37.280;-121.948;2024-03-02T03:37:40;98248.41;;;12.51
82636;BMP280;72317;37.280;-121.948;2024-03-02T03:42:41;98277.19;;;12.50
82636;BMP280;72317;37.280;-121.948;2024-03-02T03:47:42;98331.72;;;12.47
82636;BMP280;72317;37.280;-121.948;2024-03-02T03:52:43;98460.75;;;12.44
82636;BMP280;72317;37.280;-121.948;2024-03-02T03:57:43;98434.88;;;12.50
82636;BMP280;72317;37.280;-121.948;2024-03-02T04:02:44;98466.13;;;12.44
82636;BMP280;72317;37.280;-121.948;2024-03-02T04:07:45;98609.97;;;12.28
82636;BMP280;72317;37.280;-121.948;2024-03-02T04:12:46;98912.06;;;12.17
82636;BMP280;72317;37.280;-121.948;2024-03-02T04:18:07;99212.53;;;12.07
82636;BMP280;72317;37.280;-121.948;2024-03-02T04:23:07;99439.97;;;12.07
82636;BMP280;72317;37.280;-121.948;2024-03-02T04:28:08;99614.84;;;12.05
82636;BMP280;72317;37.280;-121.948;2024-03-02T04:33:09;99757.63;;;11.93
82636;BMP280;72317;37.280;-121.948;2024-03-02T04:38:10;100010.31;;;11.88
82636;BMP280;72317;37.280;-121.948;2024-03-02T04:43:10;100021.81;;;12.14
82636;BMP280;72317;37.280;-121.948;2024-03-02T04:48:11;100018.75;;;12.01
82636;BMP280;72317;37.280;-121.948;2024-03-02T04:53:12;99961.59;;;12.07
82636;BMP280;72317;37.280;-121.948;2024-03-02T04:58:13;99828.56;;;11.89
82636;BMP280;72317;37.280;-121.948;2024-03-02T05:03:14;99727.47;;;11.50
82636;BMP280;72317;37.280;-121.948;2024-03-02T05:08:14;99738.53;;;11.66
82636;BMP280;72317;37.280;-121.948;2024-03-02T05:13:15;99093.97;;;11.86
82636;BMP280;72317;37.280;-121.948;2024-03-02T05:18:16;98719.38;;;11.72
82636;BMP280;72317;37.280;-121.948;2024-03-02T05:23:16;98394.03;;;12.00
82636;BMP280;72317;37.280;-121.948;2024-03-02T05:28:17;98207.59;;;12.05
82636;BMP280;72317;37.280;-121.948;2024-03-02T05:33:18;98524.22;;;11.92
82636;BMP280;72317;37.280;-121.948;2024-03-02T05:38:19;98781.69;;;11.79
82636;BMP280;72317;37.280;-121.948;2024-03-02T05:43:19;99008.22;;;11.78
82636;BMP280;72317;37.280;-121.948;2024-03-02T05:48:20;99114.41;;;11.79
82636;BMP280;72317;37.280;-121.948;2024-03-02T05:53:21;99279.63;;;11.77
82636;BMP280;72317;37.280;-121.948;2024-03-02T05:58:22;99296.41;;;11.85
82636;BMP280;72317;37.280;-121.948;2024-03-02T06:03:23;99265.16;;;11.67
82636;BMP280;72317;37.280;-121.948;2024-03-02T06:08:24;99223.53;;;11.56
82636;BMP280;72317;37.280;-121.948;2024-03-02T06:13:24;98882.53;;;11.77
82636;BMP280;72317;37.280;-121.948;2024-03-02T06:18:25;98549.00;;;11.47
82636;BMP280;72317;37.280;-121.948;2024-03-02T06:23:26;98834.91;;;11.41
82636;BMP280;72317;37.280;-121.948;2024-03-02T06:28:27;99029.69;;;11.51
82636;BMP280;72317;37.280;-121.948;2024-03-02T06:33:28;99030.47;;;11.52
82636;BMP280;72317;37.280;-121.948;2024-03-02T06:38:28;98898.75;;;11.46
82636;BMP280;72317;37.280;-121.948;2024-03-02T06:43:29;98838.44;;;11.35
82636;BMP280;72317;37.280;-121.948;2024-03-02T06:48:30;98872.88;;;11.36
82636;BMP280;72317;37.280;-121.948;2024-03-02T06:53:31;98787.41;;;11.18
82636;BMP280;72317;37.280;-121.948;2024-03-02T06:58:31;98726.59;;;11.35
82636;BMP280;72317;37.280;-121.948;2024-03-02T07:03:32;98615.97;;;11.31
82636;BMP280;72317;37.280;-121.948;2024-03-02T07:08:33;98402.72;;;11.46
82636;BMP280;72317;37.280;-121.948;2024-03-02T07:13:35;98188.75;;;11.41
82636;BMP280;72317;37.280;-121.948;2024-03-02T07:18:35;98366.69;;;11.31
82636;BMP280;72317;37.280;-121.948;2024-03-02T07:23:36;98476.41;;;11.22
82636;BMP280;72317;37.280;-121.948;2024-03-02T07:28:37;98819.88;;;11.44
82636;BMP280;72317;37.280;-121.948;2024-03-02T07:33:38;98551.25;;;11.49
82636;BMP280;72317;37.280;-121.948;2024-03-02T07:38:39;98145.66;;;11.61
82636;BMP280;72317;37.280;-121.948;2024-03-02T07:43:39;97733.72;;;11.55
82636;BMP280;72317;37.280;-121.948;2024-03-02T07:48:42;97643.94;;;11.59
82636;BMP280;72317;37.280;-121.948;2024-03-02T07:53:43;97703.53;;;11.63
82636;BMP280;72317;37.280;-121.948;2024-03-02T07:58:43;97370.50;;;11.77
82636;BMP280;72317;37.280;-121.948;2024-03-02T08:03:44;97653.16;;;11.58
82636;BMP280;72317;37.280;-121.948;2024-03-02T08:08:45;98492.41;;;11.26
82636;BMP280;72317;37.280;-121.948;2024-03-02T08:13:46;99158.78;;;11.23
82636;BMP280;72317;37.280;-121.948;2024-03-02T08:18:47;99479.34;;;11.28
82636;BMP280;72317;37.280;-121.948;2024-03-02T08:23:48;99641.78;;;11.14
82636;BMP280;72317;37.280;-121.948;2024-03-02T08:28:49;99618.78;;;11.17
82636;BMP280;72317;37.280;-121.948;2024-03-02T08:33:50;99414.69;;;11.15
82636;BMP280;72317;37.280;-121.948;2024-03-02T08:38:50;99316.78;;;11.00
82636;BMP280;72317;37.280;-121.948;2024-03-02T08:43:51;99490.25;;;10.88
82636;BMP280;72317;37.280;-121.948;2024-03-02T08:48:52;99598.59;;;10.84
82636;BMP280;72317;37.280;-121.948;2024-03-02T08:53:53;99876.91;;;10.78
82636;BMP280;72317;37.280;-121.948;2024-03-02T08:58:53;100024.72;;;10.87
82636;BMP280;72317;37.280;-121.948;2024-03-02T09:03:54;100015.94;;;11.05
82636;BMP280;72317;37.280;-121.948;2024-03-02T09:08:55;100025.19;;;11.11
82636;BMP280;72317;37.280;-121.948;2024-03-02T09:13:56;99930.19;;;11.08
82636;BMP280;72317;37.280;-121.948;2024-03-02T09:18:57;99625.34;;;11.09
82636;BMP280;72317;37.280;-121.948;2024-03-02T09:23:58;99060.72;;;10.91
82636;BMP280;72317;37.280;-121.948;2024-03-02T09:28:59;98701.69;;;10.95
82636;BMP280;72317;37.280;-121.948;2024-03-02T09:33:59;98432.13;;;10.81
82636;BMP280;72317;37.280;-121.948;2024-03-02T09:39:00;98392.94;;;10.71
82636;BMP280;72317;37.280;-121.948;2024-03-02T09:44:02;98589.66;;;10.67
82636;BMP280;72317;37.280;-121.948;2024-03-02T09:49:03;98781.59;;;10.73
82636;BMP280;72317;37.280;-121.948;2024-03-02T09:54:04;99058.41;;;10.93
82636;BMP280;72317;37.280;-121.948;2024-03-02T09:59:05;99323.38;;;10.88
82636;BMP280;72317;37.280;-121.948;2024-03-02T10:04:06;99615.84;;;10.76
82636;BMP280;72317;37.280;-121.948;2024-03-02T10:09:06;99855.75;;;10.52
82636;BMP280;72317;37.280;-121.948;2024-03-02T10:14:08;99938.88;;;10.62
82636;BMP280;72317;37.280;-121.948;2024-03-02T10:19:21;99988.91;;;10.44
82636;BMP280;72317;37.280;-121.948;2024-03-02T10:24:22;99908.13;;;10.35
82636;BMP280;72317;37.280;-121.948;2024-03-02T10:29:23;99716.78;;;9.97
82636;BMP280;72317;37.280;-121.948;2024-03-02T10:34:24;99670.91;;;10.09
82636;BMP280;72317;37.280;-121.948;2024-03-02T10:39:25;99431.97;;;10.05
82636;BMP280;72317;37.280;-121.948;2024-03-02T10:44:27;99185.91;;;9.84
82636;BMP280;72317;37.280;-121.948;2024-03-02T10:49:29;99135.50;;;9.79
82636;BMP280;72317;37.280;-121.948;2024-03-02T10:54:30;99008.47;;;9.97
82636;BMP280;72317;37.280;-121.948;2024-03-02T10:59:43;99024.44;;;10.12
82636;BMP280;72317;37.280;-121.948;2024-03-02T11:04:49;98928.78;;;10.19
82636;BMP280;72317;37.280;-121.948;2024-03-02T11:10:00;99000.41;;;10.04
82636;BMP280;72317;37.280;-121.948;2024-03-02T11:15:03;99259.69;;;9.70
82636;BMP280;72317;37.280;-121.948;2024-03-02T11:20:06;99436.19;;;9.63
82636;BMP280;72317;37.280;-121.948;2024-03-02T11:25:26;99579.41;;;9.39
82636;BMP280;72317;37.280;-121.948;2024-03-02T11:35:44;99488.88;;;9.31
82636;BMP280;72317;37.280;-121.948;2024-03-02T11:40:45;99592.28;;;9.16
82636;BMP280;72317;37.280;-121.948;2024-03-02T11:45:45;99663.63;;;9.05
82636;BMP280;72317;37.280;-121.948;2024-03-02T11:50:49;99471.31;;;9.37
82636;BMP280;72317;37.280;-121.948;2024-03-02T11:55:50;98989.03;;;9.38
82636;BMP280;72317;37.280;-121.948;2024-03-02T12:00:54;98593.13;;;9.36
82636;BMP280;72317;37.280;-121.948;2024-03-02T12:05:55;98694.28;;;9.00
82636;BMP280;72317;37.280;-121.948;2024-03-02T12:11:00;98438.34;;;9.22
82636;BMP280;72317;37.280;-121.948;2024-03-02T12:16:01;98482.09;;;9.58
82636;BMP280;72317;37.280;-121.948;2024-03-02T12:21:02;98388.81;;;9.40
82636;BMP280;72317;37.280;-121.948;2024-03-02T12:26:03;98319.25;;;9.47
82636;BMP280;72317;37.280;-121.948;2024-03-02T12:31:04;98498.03;;;9.08
82636;BMP280;72317;37.280;-121.948;2024-03-02T12:36:05;98707.53;;;9.10
82636;BMP280;72317;37.280;-121.948;2024-03-02T12:41:09;98923.66;;;8.87
82636;BMP280;72317;37.280;-121.948;2024-03-02T12:46:11;98989.25;;;8.88
82636;BMP280;72317;37.280;-121.948;2024-03-02T12:51:12;99406.22;;;8.65
82636;BMP280;72317;37.280;-121.948;2024-03-02T12:56:13;99397.88;;;8.74
82636;BMP280;72317;37.280;-121.948;2024-03-02T13:01:15;99329.19;;;8.67
82636;BMP280;72317;37.280;-121.948;2024-03-02T13:06:16;99298.69;;;8.82
82636;BMP280;72317;37.280;-121.948;2024-03-02T13:11:17;99210.56;;;8.82
82636;BMP280;72317;37.280;-121.948;2024-03-02T13:16:18;98903.81;;;8.95
82636;BMP280;72317;37.280;-121.948;2024-03-02T13:21:19;98925.63;;;8.72
82636;BMP280;72317;37.280;-121.948;2024-03-02T13:26:20;99193.38;;;8.66
82636;BMP280;72317;37.280;-121.948;2024-03-02T13:31:21;99227.72;;;8.78
82636;BMP280;72317;37.280;-121.948;2024-03-02T13:36:21;99246.03;;;8.69
82636;BMP280;72317;37.280;-121.948;2024-03-02T13:41:22;99351.31;;;8.71
82636;BMP280;72317;37.280;-121.948;2024-03-02T13:46:23;99104.88;;;8.85
82636;BMP280;72317;37.280;-121.948;2024-03-02T13:51:24;98874.06;;;8.86
82636;BMP280;72317;37.280;-121.948;2024-03-02T13:56:25;98454.78;;;8.89
82636;BMP280;72317;37.280;-121.948;2024-03-02T14:01:27;98128.66;;;8.91
82636;BMP280;72317;37.280;-121.948;2024-03-02T14:06:28;97762.66;;;8.85
82636;BMP280;72317;37.280;-121.948;2024-03-02T14:11:29;97912.53;;;8.84
82636;BMP280;72317;37.280;-121.948;2024-03-02T14:16:29;97900.59;;;8.72
82636;BMP280;72317;37.280;-121.948;2024-03-02T14:21:30;97786.56;;;8.89
82636;BMP280;72317;37.280;-121.948;2024-03-02T14:26:31;97600.13;;;8.87
82636;BMP280;72317;37.280;-121.948;2024-03-02T14:31:32;97645.69;;;8.80
82636;BMP280;72317;37.280;-121.948;2024-03-02T14:36:33;97553.09;;;8.77
82636;BMP280;72317;37.280;-121.948;2024-03-02T14:41:33;97581.50;;;8.71
82636;BMP280;72317;37.280;-121.948;2024-03-02T14:46:34;97566.44;;;8.77
82636;BMP280;72317;37.280;-121.948;2024-03-02T14:51:35;97558.91;;;8.88
82636;BMP280;72317;37.280;-121.948;2024-03-02T14:56:36;97559.94;;;8.95
82636;BMP280;72317;37.280;-121.948;2024-03-02T15:01:36;97582.94;;;8.88
82636;BMP280;72317;37.280;-121.948;2024-03-02T15:06:37;97535.50;;;9.09
82636;BMP280;72317;37.280;-121.948;2024-03-02T15:11:38;97589.59;;;9.64
82636;BMP280;72317;37.280;-121.948;2024-03-02T15:16:40;97882.13;;;9.92
82636;BMP280;72317;37.280;-121.948;2024-03-02T15:21:41;98151.69;;;9.64
82636;BMP280;72317;37.280;-121.948;2024-03-02T15:26:41;98316.28;;;10.93
82636;BMP280;72317;37.280;-121.948;2024-03-02T15:31:42;98503.97;;;11.23
82636;BMP280;72317;37.280;-121.948;2024-03-02T15:36:43;98418.78;;;11.46
82636;BMP280;72317;37.280;-121.948;2024-03-02T15:41:44;98402.59;;;11.95
82636;BMP280;72317;37.280;-121.948;2024-03-02T15:46:45;98756.22;;;12.73
82636;BMP280;72317;37.280;-121.948;2024-03-02T15:51:46;98043.81;;;10.65
82636;BMP280;72317;37.280;-121.948;2024-03-02T15:56:47;97671.56;;;10.34
82636;BMP280;72317;37.280;-121.948;2024-03-02T16:01:47;97607.25;;;10.72
82636;BMP280;72317;37.280;-121.948;2024-03-02T16:06:48;97591.19;;;10.59
82636;BMP280;72317;37.280;-121.948;2024-03-02T16:11:49;97584.53;;;10.64
82636;BMP280;72317;37.280;-121.948;2024-03-02T16:16:50;97582.56;;;10.55
82636;BMP280;72317;37.280;-121.948;2024-03-02T16:21:50;97577.41;;;10.83
82636;BMP280;72317;37.280;-121.948;2024-03-02T16:26:51;97564.44;;;10.81
82636;BMP280;72317;37.280;-121.948;2024-03-02T16:31:52;97581.19;;;10.73
82636;BMP280;72317;37.280;-121.948;2024-03-02T16:36:52;97594.63;;;10.60
82636;BMP280;72317;37.280;-121.948;2024-03-02T16:41:53;97601.56;;;10.70
82636;BMP280;72317;37.280;-121.948;2024-03-02T16:46:54;97605.41;;;10.69
82636;BMP280;72317;37.280;-121.948;2024-03-02T16:51:55;97558.38;;;11.43
82636;BMP280;72317;37.280;-121.948;2024-03-02T16:56:55;97674.59;;;11.58
82636;BMP280;72317;37.280;-121.948;2024-03-02T17:01:56;97836.88;;;11.63
82636;BMP280;72317;37.280;-121.948;2024-03-02T17:06:57;97958.28;;;11.63
82636;BMP280;72317;37.280;-121.948;2024-03-02T17:11:58;97736.22;;;11.49
82636;BMP280;72317;37.280;-121.948;2024-03-02T17:16:58;97869.13;;;11.59
82636;BMP280;72317;37.280;-121.948;2024-03-02T17:21:59;98238.22;;;12.20
82636;BMP280;72317;37.280;-121.948;2024-03-02T17:27:00;98303.94;;;11.74
82636;BMP280;72317;37.280;-121.948;2024-03-02T17:32:01;98451.63;;;12.12
82636;BMP280;72317;37.280;-121.948;2024-03-02T17:37:02;98799.25;;;12.20
82636;BMP280;72317;37.280;-121.948;2024-03-02T17:42:02;99098.53;;;11.89
82636;BMP280;72317;37.280;-121.948;2024-03-02T17:47:03;99229.34;;;11.81
82636;BMP280;72317;37.280;-121.948;2024-03-02T17:52:05;99221.72;;;12.80
82636;BMP280;72317;37.280;-121.948;2024-03-02T17:57:05;99354.34;;;13.44
82636;BMP280;72317;37.280;-121.948;2024-03-02T18:02:06;99439.19;;;13.91
82636;BMP280;72317;37.280;-121.948;2024-03-02T18:07:07;99630.47;;;13.61
82636;BMP280;72317;37.280;-121.948;2024-03-02T18:12:08;99626.94;;;13.37
82636;BMP280;72317;37.280;-121.948;2024-03-02T18:17:08;99405.34;;;13.04
82636;BMP280;72317;37.280;-121.948;2024-03-02T18:22:09;99139.84;;;14.58
82636;BMP280;72317;37.280;-121.948;2024-03-02T18:27:10;99426.44;;;13.29
82636;BMP280;72317;37.280;-121.948;2024-03-02T18:32:11;98945.13;;;13.54
82636;BMP280;72317;37.280;-121.948;2024-03-02T18:37:12;98792.09;;;12.82
82636;BMP280;72317;37.280;-121.948;2024-03-02T18:42:13;98580.22;;;12.23
82636;BMP280;72317;37.280;-121.948;2024-03-02T18:47:14;97912.78;;;12.38
82636;BMP280;72317;37.280;-121.948;2024-03-02T18:52:15;97607.91;;;11.60
82636;BMP280;72317;37.280;-121.948;2024-03-02T18:57:15;97395.34;;;11.32
82636;BMP280;72317;37.280;-121.948;2024-03-02T19:02:16;97414.56;;;13.78
82636;BMP280;72317;37.280;-121.948;2024-03-02T19:07:17;98647.94;;;14.88
82636;BMP280;72317;37.280;-121.948;2024-03-02T19:12:18;98109.19;;;13.46
82636;BMP280;72317;37.280;-121.948;2024-03-02T19:17:19;97891.41;;;12.56
82636;BMP280;72317;37.280;-121.948;2024-03-02T19:22:20;97689.00;;;12.99
82636;BMP280;72317;37.280;-121.948;2024-03-02T19:27:20;98807.53;;;13.40
82636;BMP280;72317;37.280;-121.948;2024-03-02T19:32:21;98352.47;;;12.47
82636;BMP280;72317;37.280;-121.948;2024-03-02T19:37:22;97867.28;;;13.15
82636;BMP280;72317;37.280;-121.948;2024-03-02T19:42:23;98369.56;;;11.98
82636;BMP280;72317;37.280;-121.948;2024-03-02T19:47:23;98591.34;;;12.05
82636;BMP280;72317;37.280;-121.948;2024-03-02T19:52:24;98486.09;;;12.43
82636;BMP280;72317;37.280;-121.948;2024-03-02T19:57:25;98545.38;;;13.19
82636;BMP280;72317;37.280;-121.948;2024-03-02T20:02:26;98918.22;;;12.89
82636;BMP280;72317;37.280;-121.948;2024-03-02T20:07:26;98942.38;;;13.42
82636;BMP280;72317;37.280;-121.948;2024-03-02T20:12:27;99031.75;;;12.97
82636;BMP280;72317;37.280;-121.948;2024-03-02T20:17:28;99016.69;;;12.99
82636;BMP280;72317;37.280;-121.948;2024-03-02T20:22:29;99285.56;;;12.99
82636;BMP280;72317;37.280;-121.948;2024-03-02T20:27:30;99396.50;;;12.46
82636;BMP280;72317;37.280;-121.948;2024-03-02T20:32:30;99356.31;;;13.16
82636;BMP280;72317;37.280;-121.948;2024-03-02T20:37:31;99385.38;;;12.75
82636;BMP280;72317;37.280;-121.948;2024-03-02T20:42:32;99206.38;;;13.24
82636;BMP280;72317;37.280;-121.948;2024-03-02T20:47:33;99182.75;;;12.72
82636;BMP280;72317;37.280;-121.948;2024-03-02T20:52:33;99283.78;;;12.89
82636;BMP280;72317;37.280;-121.948;2024-03-02T20:57:34;99294.94;;;12.88
82636;BMP280;72317;37.280;-121.948;2024-03-02T21:02:35;99458.06;;;13.21
82636;BMP280;72317;37.280;-121.948;2024-03-02T21:07:36;99615.13;;;14.08
82636;BMP280;72317;37.280;-121.948;2024-03-02T21:12:36;100026.75;;;13.27
82636;BMP280;72317;37.280;-121.948;2024-03-02T21:17:37;100015.72;;;13.08
82636;BMP280;72317;37.280;-121.948;2024-03-02T21:22:38;100110.94;;;13.32
82636;BMP280;72317;37.280;-121.948;2024-03-02T21:27:39;100099.06;;;13.81
82636;BMP280;72317;37.280;-121.948;2024-03-02T21:32:40;100090.13;;;13.91
82636;BMP280;72317;37.280;-121.948;2024-03-02T21:37:41;100093.25;;;13.86
82636;BMP280;72317;37.280;-121.948;2024-03-02T21:42:41;100109.44;;;14.27
82636;BMP280;72317;37.280;-121.948;2024-03-02T21:47:42;100048.06;;;14.08
82636;BMP280;72317;37.280;-121.948;2024-03-02T21:52:43;99937.91;;;13.35
82636;BMP280;72317;37.280;-121.948;2024-03-02T21:57:44;99419.97;;;12.42
82636;BMP280;72317;37.280;-121.948;2024-03-02T22:02:45;99293.88;;;12.31
82636;BMP280;72317;37.280;-121.948;2024-03-02T22:07:46;99260.28;;;12.20
82636;BMP280;72317;37.280;-121.948;2024-03-02T22:12:46;99053.78;;;12.05
82636;BMP280;72317;37.280;-121.948;2024-03-02T22:17:47;98445.84;;;11.52
82636;BMP280;72317;37.280;-121.948;2024-03-02T22:22:48;97104.84;;;10.87
82636;BMP280;72317;37.280;-121.948;2024-03-02T22:27:49;97392.03;;;11.28
82636;BMP280;72317;37.280;-121.948;2024-03-02T22:32:50;97423.44;;;11.18
82636;BMP280;72317;37.280;-121.948;2024-03-02T22:37:50;97371.78;;;12.09
82636;BMP280;72317;37.280;-121.948;2024-03-02T22:42:51;97329.28;;;12.35
82636;BMP280;72317;37.280;-121.948;2024-03-02T22:47:52;97590.72;;;11.89
82636;BMP280;72317;37.280;-121.948;2024-03-02T22:52:53;97577.69;;;12.36
82636;BMP280;72317;37.280;-121.948;2024-03-02T22:57:54;97717.00;;;12.53
82636;BMP280;72317;37.280;-121.948;2024-03-02T23:02:55;97671.47;;;12.31
82636;BMP280;72317;37.280;-121.948;2024-03-02T23:07:56;97633.47;;;12.42
82636;BMP280;72317;37.280;-121.948;2024-03-02T23:12:57;97703.25;;;11.92
82636;BMP280;72317;37.280;-121.948;2024-03-02T23:17:58;97545.47;;;12.09
82636;BMP280;72317;37.280;-121.948;2024-03-02T23:22:59;97422.66;;;11.86
82636;BMP280;72317;37.280;-121.948;2024-03-02T23:28:00;97453.16;;;11.61
82636;BMP280;72317;37.280;-121.948;2024-03-02T23:33:01;97532.31;;;11.34
82636;BMP280;72317;37.280;-121.948;2024-03-02T23:38:01;97581.16;;;10.85
82636;BMP280;72317;37.280;-121.948;2024-03-02T23:43:02;97730.91;;;10.80
82636;BMP280;72317;37.280;-121.948;2024-03-02T23:48:04;97952.22;;;10.45
82636;BMP280;72317;37.280;-121.948;2024-03-02T23:53:05;98055.19;;;10.40
82636;BMP280;72317;37.280;-121.948;2024-03-02T23:58:06;98020.22;;;10.76
